Airfield :







YOU CAN JOIN US ON...

 
LOGIN :

Register | Disclaimer

   EN    FR    IT 

 









Legend :    VFR   Marginal VFR   IFR   Intensive IFR   Very Intensive IFR
Visi :
Ceiling :
>= 8 km
>= 3000ft
5 to 8 km
1000 to 3000 ft
1500m to 5 km
500 to 1000 ft
800 to 1500m
200 to 500 ft
< 800m
< 200 ft
Symbols :   Thunderstorms  Fog  Heavy snow  Heavy precipitations  Wind > 20 kt






- Airport Elevation : 72 ft
- IATA code : YDF


CYDF - Deer Lake

CURRENT METAR :
  • 162100Z 25021G33KT 3SM -SN OVC025 M03/M07 A2961 RMK SC8 VIS VRB 2-4 SLP028

EXPIRED METARs :
  • 162000Z 25011G18KT 2SM -SN OVC020 M03/M06 A2960 RMK SC8 VIS VRB 1-3 SLP025
  • 161921Z 26012G25KT 3SM -SHSN BKN020 M03/M05 A2956 RMK SC7 CVCTV CLD EMBD VIS VRB 1-5 SLP014
  • 161900Z 28014G22KT 1SM -SHSN OVC015 M03/M05 A2954 RMK SC8 CVCTV CLD EMBD OCNL BLSN PRESRR SLP007
  • 161836Z 23015KT 3/4SM -SHSN VV008 M03/M05 A2952 RMK SN8 CVCTV CLD EMBD SLP000

TAF TAF CYDF
Valid from the 16 at 20:00 until the 17 at 08:00 UTC


161938Z 1620/1708 25018G33KT 6SM -SHSN BKN025
TEMPO 1620/1624 1SM -SHSN BLSN OVC015
FM170000 25020G40KT P6SM BKN030
TEMPO 1700/1703 2SM -SHSN BLSN BKN020
PROB30 1700/1703 1SM -SHSN BLSN
FM170300 25025G40KT P6SM BKN020
BECMG 1705/1707 25018G33KT RMK NXT FCST BY 170200Z



MET'MAP, your aeronautical weather chart ! - Copyright ORBIFLY December 2007 - Disclaimer

ORBIFLY MET'MAP TEAM :

Programming & Development : Alexandra Zaïnal
Concept & Development : Baudouin d'Aumeries
Co-Development & Prog : Marc-Olivier Méhu
Technical & hardware support : Manuel Goepfert

Contact : metmap@orbifly.com




SOURCES & CREDITS :

   NOAA